Create Tblcommutelog Verified Points Advance Search
| # | Trip ID | Id Commuter | Trip Date | Trip Num | Current Lat | Current Lng | Delta Distance | Current Time | Activity | Activity Confidence | Current Speed | |
|---|---|---|---|---|---|---|---|---|---|---|---|---|
| 73721 | 251216_788608_16515618_0914 | 788608 | (not set) | (not set) | 38.897361459476 | -77.004013080318 | 0.4775 | 2025-12-16 09:17:04 | on_bicycle | 100 | 0.66161810330183 | |
| 73722 | 251216_788608_16515618_0914 | 788608 | (not set) | (not set) | 38.896648578638 | -77.005690249202 | 0.5804 | 2025-12-16 09:17:40 | on_bicycle | 100 | 1.9714431321359 | |
| 73723 | 251216_789790_16452813_0629 | 789790 | (not set) | (not set) | 38.8078617 | -77.0726717 | 1.2342 | 2025-12-16 06:38:37 | on_bicycle | 100 | 2.9325775389595 | |
| 73724 | 251216_790593_16516539_0803 | 790593 | (not set) | (not set) | 38.795677894659 | -77.568943147263 | 36.8198 | 2025-12-16 08:58:37 | in_vehicle | 100 | 11.095514408075 | |
| 73725 | 251216_780809_16496249_0819 | 780809 | (not set) | (not set) | 38.946256839008 | -77.294815744234 | 6.0275 | 2025-12-16 08:58:38 | in_vehicle | 100 | 14.725473191056 | |
| 73726 | 251216_774439_16429090_0732 | 774439 | (not set) | (not set) | 38.782954237543 | -77.450017651923 | 19.4401 | 2025-12-16 08:59:08 | in_vehicle | 100 | 9.1240712759395 | |
| 73727 | 251216_790224_16450333_0707 | 790224 | (not set) | (not set) | 38.533512155447 | -77.356630519483 | 79.4584 | 2025-12-16 08:59:26 | in_vehicle | 100 | 17.018784589663 | |
| 73728 | 251216_790224_16450333_0707 | 790224 | (not set) | (not set) | 38.539598464751 | -77.349575430447 | 80.0262 | 2025-12-16 08:59:50 | in_vehicle | 100 | 17.193129900668 | |
| 73729 | 251216_694714_16515598_0827 | 694714 | (not set) | (not set) | 38.946239235883 | -77.022550952763 | 0.2094 | 2025-12-16 08:59:58 | running | 100 | -0.44703925898772 | |
| 73730 | 251216_753795_16499475_0811 | 753795 | (not set) | (not set) | 38.900300362676 | -77.029558257197 | 12.2367 | 2025-12-16 09:00:09 | on_bicycle | 100 | 0.19222688136472 | |
| 73731 | 251216_784627_16496249_0809 | 784627 | (not set) | (not set) | 38.902322806756 | -77.04117805778 | 11.5954 | 2025-12-16 09:00:29 | unknown | 100 | 0.65714771071195 | |
| 73732 | 251216_780998_16415274_0815 | 780998 | (not set) | (not set) | 38.905706888739 | -77.077047073768 | 14.5039 | 2025-12-16 09:00:48 | in_vehicle | 100 | 3.2991497313294 | |
| 73733 | 251216_790224_16450333_0707 | 790224 | (not set) | (not set) | 38.564822700631 | -77.337616781356 | 81.8959 | 2025-12-16 09:01:14 | in_vehicle | 100 | 17.081370085921 | |
| 73734 | 251216_694714_16515598_0827 | 694714 | (not set) | (not set) | 38.9433519726 | -77.025019616598 | 0.4506 | 2025-12-16 09:01:39 | running | 100 | 1.4484071991202 | |
| 73735 | 251216_790593_16516539_0803 | 790593 | (not set) | (not set) | 38.7683851699 | -77.536265995999 | 39.5035 | 2025-12-16 09:02:01 | in_vehicle | 100 | 8.9989002834229 | |
| 73736 | 251216_776877_16494140_0820 | 776877 | (not set) | (not set) | 38.884669976255 | -77.105461271957 | 20.572 | 2025-12-16 09:02:38 | in_vehicle | 100 | -0.44703925898772 | |
| 73737 | 251216_694714_16515598_0827 | 694714 | (not set) | (not set) | 38.942635858642 | -77.025548793331 | 0.5077 | 2025-12-16 09:03:05 | running | 100 | 0 | |
| 73738 | 251216_694714_16515598_0827 | 694714 | (not set) | (not set) | 38.941702209449 | -77.026205873189 | 0.5853 | 2025-12-16 09:03:17 | running | 100 | 1.4796999472494 | |
| 73739 | 251216_770910_16486049_0820 | 770910 | (not set) | (not set) | 38.805919904298 | -77.061925185916 | 8.6879 | 2025-12-16 09:03:32 | still | 33 | 2.4989494577414 | |
| 73740 | 251216_790593_16516539_0803 | 790593 | (not set) | (not set) | 38.757816276556 | -77.52999877867 | 40.308 | 2025-12-16 09:03:57 | in_vehicle | 100 | 9.213479127737 |